sensor_id;sensor_type;location;lat;lon;timestamp;pressure;altitude;pressure_sealevel;temperature;humidity
45369;BME280;51342;55.250;37.668;2023-03-04T00:02:03;97995.59;;;-3.77;74.64
45369;BME280;51342;55.250;37.668;2023-03-04T00:04:35;98005.63;;;-3.68;74.66
45369;BME280;51342;55.250;37.668;2023-03-04T00:07:06;97999.28;;;-3.63;74.69
45369;BME280;51342;55.250;37.668;2023-03-04T00:09:38;97983.13;;;-3.65;74.56
45369;BME280;51342;55.250;37.668;2023-03-04T00:12:09;97984.66;;;-3.57;74.72
45369;BME280;51342;55.250;37.668;2023-03-04T00:14:41;97982.38;;;-3.54;74.86
45369;BME280;51342;55.250;37.668;2023-03-04T00:17:12;97977.06;;;-3.47;74.96
45369;BME280;51342;55.250;37.668;2023-03-04T00:19:43;97974.81;;;-3.44;75.12
45369;BME280;51342;55.250;37.668;2023-03-04T00:22:15;97977.84;;;-3.38;75.26
45369;BME280;51342;55.250;37.668;2023-03-04T00:24:46;97970.63;;;-3.33;75.39
45369;BME280;51342;55.250;37.668;2023-03-04T00:27:18;97971.91;;;-3.28;75.39
45369;BME280;51342;55.250;37.668;2023-03-04T00:29:49;97957.84;;;-3.25;75.65
45369;BME280;51342;55.250;37.668;2023-03-04T00:32:20;97950.53;;;-3.22;75.73
45369;BME280;51342;55.250;37.668;2023-03-04T00:34:52;97953.56;;;-3.15;75.82
45369;BME280;51342;55.250;37.668;2023-03-04T00:37:23;97952.19;;;-3.12;76.03
45369;BME280;51342;55.250;37.668;2023-03-04T00:39:55;97955.06;;;-3.07;76.00
45369;BME280;51342;55.250;37.668;2023-03-04T00:42:26;97951.63;;;-3.08;76.29
45369;BME280;51342;55.250;37.668;2023-03-04T00:44:57;97953.91;;;-3.01;76.29
45369;BME280;51342;55.250;37.668;2023-03-04T00:47:29;97935.31;;;-3.01;76.54
45369;BME280;51342;55.250;37.668;2023-03-04T00:50:01;97939.09;;;-2.96;76.58
45369;BME280;51342;55.250;37.668;2023-03-04T00:52:32;97937.94;;;-2.89;76.70
45369;BME280;51342;55.250;37.668;2023-03-04T00:55:04;97944.78;;;-2.88;76.73
45369;BME280;51342;55.250;37.668;2023-03-04T00:57:36;97941.63;;;-2.86;76.75
45369;BME280;51342;55.250;37.668;2023-03-04T01:00:08;97939.09;;;-2.86;76.79
45369;BME280;51342;55.250;37.668;2023-03-04T01:02:40;97944.75;;;-2.78;76.79
45369;BME280;51342;55.250;37.668;2023-03-04T01:05:12;97939.69;;;-2.78;76.90
45369;BME280;51342;55.250;37.668;2023-03-04T01:07:43;97936.53;;;-2.76;76.78
45369;BME280;51342;55.250;37.668;2023-03-04T01:10:15;97942.59;;;-2.74;76.99
45369;BME280;51342;55.250;37.668;2023-03-04T01:12:47;97923.63;;;-2.79;76.79
45369;BME280;51342;55.250;37.668;2023-03-04T01:15:19;97930.97;;;-2.72;77.01
45369;BME280;51342;55.250;37.668;2023-03-04T01:17:50;97911.22;;;-2.76;76.85
45369;BME280;51342;55.250;37.668;2023-03-04T01:20:22;97921.72;;;-2.71;76.81
45369;BME280;51342;55.250;37.668;2023-03-04T01:22:53;97921.06;;;-2.69;76.93
45369;BME280;51342;55.250;37.668;2023-03-04T01:25:25;97911.81;;;-2.68;76.84
45369;BME280;51342;55.250;37.668;2023-03-04T01:27:57;97910.44;;;-2.64;76.81
45369;BME280;51342;55.250;37.668;2023-03-04T01:30:28;97906.63;;;-2.59;76.92
45369;BME280;51342;55.250;37.668;2023-03-04T01:33:00;97902.19;;;-2.62;76.85
45369;BME280;51342;55.250;37.668;2023-03-04T01:35:32;97900.53;;;-2.61;76.93
45369;BME280;51342;55.250;37.668;2023-03-04T01:38:04;97900.41;;;-2.63;77.00
45369;BME280;51342;55.250;37.668;2023-03-04T01:40:36;97901.56;;;-2.59;76.89
45369;BME280;51342;55.250;37.668;2023-03-04T01:43:15;97893.06;;;-2.60;76.92
45369;BME280;51342;55.250;37.668;2023-03-04T01:45:54;97901.66;;;-2.58;76.96
45369;BME280;51342;55.250;37.668;2023-03-04T01:48:31;97892.41;;;-2.57;76.80
45369;BME280;51342;55.250;37.668;2023-03-04T01:51:04;97897.56;;;-2.78;77.03
45369;BME280;51342;55.250;37.668;2023-03-04T01:53:36;97880.34;;;-2.72;77.10
45369;BME280;51342;55.250;37.668;2023-03-04T01:56:19;97890.41;;;-2.61;76.74
45369;BME280;51342;55.250;37.668;2023-03-04T01:59:18;97888.78;;;-2.61;77.01
45369;BME280;51342;55.250;37.668;2023-03-04T02:01:55;97877.13;;;-2.59;76.85
45369;BME280;51342;55.250;37.668;2023-03-04T02:04:30;97875.56;;;-2.57;77.01
45369;BME280;51342;55.250;37.668;2023-03-04T02:07:04;97873.41;;;-2.52;77.07
45369;BME280;51342;55.250;37.668;2023-03-04T02:09:36;97856.22;;;-2.56;76.98
45369;BME280;51342;55.250;37.668;2023-03-04T02:12:07;97864.28;;;-2.50;76.90
45369;BME280;51342;55.250;37.668;2023-03-04T02:14:39;97872.13;;;-2.47;77.09
45369;BME280;51342;55.250;37.668;2023-03-04T02:17:11;97858.69;;;-2.46;76.99
45369;BME280;51342;55.250;37.668;2023-03-04T02:19:48;97862.22;;;-2.44;77.18
45369;BME280;51342;55.250;37.668;2023-03-04T02:22:22;97853.31;;;-2.39;77.11
45369;BME280;51342;55.250;37.668;2023-03-04T02:25:02;97833.47;;;-2.45;77.01
45369;BME280;51342;55.250;37.668;2023-03-04T02:27:37;97853.31;;;-2.39;77.21
45369;BME280;51342;55.250;37.668;2023-03-04T02:30:10;97840.44;;;-2.42;77.31
45369;BME280;51342;55.250;37.668;2023-03-04T02:32:43;97825.56;;;-2.49;77.32
45369;BME280;51342;55.250;37.668;2023-03-04T02:35:21;97846.75;;;-2.37;77.09
45369;BME280;51342;55.250;37.668;2023-03-04T02:37:53;97831.72;;;-2.46;77.27
45369;BME280;51342;55.250;37.668;2023-03-04T02:40:28;97851.81;;;-2.37;77.40
45369;BME280;51342;55.250;37.668;2023-03-04T02:43:01;97833.31;;;-2.36;77.30
45369;BME280;51342;55.250;37.668;2023-03-04T02:45:38;97808.56;;;-2.50;77.29
45369;BME280;51342;55.250;37.668;2023-03-04T02:48:12;97824.19;;;-2.34;77.31
45369;BME280;51342;55.250;37.668;2023-03-04T02:50:50;97830.13;;;-2.33;77.50
45369;BME280;51342;55.250;37.668;2023-03-04T02:53:22;97824.19;;;-2.34;77.30
45369;BME280;51342;55.250;37.668;2023-03-04T02:55:59;97819.38;;;-2.31;77.14
45369;BME280;51342;55.250;37.668;2023-03-04T02:58:37;97807.63;;;-2.41;77.51
45369;BME280;51342;55.250;37.668;2023-03-04T03:01:10;97816.84;;;-2.31;77.26
45369;BME280;51342;55.250;37.668;2023-03-04T03:03:42;97811.25;;;-2.27;77.36
45369;BME280;51342;55.250;37.668;2023-03-04T03:06:15;97785.72;;;-2.40;77.23
45369;BME280;51342;55.250;37.668;2023-03-04T03:08:47;97786.84;;;-2.36;77.24
45369;BME280;51342;55.250;37.668;2023-03-04T03:11:19;97789.59;;;-2.33;77.25
45369;BME280;51342;55.250;37.668;2023-03-04T03:13:51;97794.25;;;-2.28;77.42
45369;BME280;51342;55.250;37.668;2023-03-04T03:16:23;97780.59;;;-2.30;77.42
45369;BME280;51342;55.250;37.668;2023-03-04T03:18:54;97795.63;;;-2.21;77.41
45369;BME280;51342;55.250;37.668;2023-03-04T03:21:26;97775.44;;;-2.31;77.37
45369;BME280;51342;55.250;37.668;2023-03-04T03:23:58;97787.25;;;-2.20;77.32
45369;BME280;51342;55.250;37.668;2023-03-04T03:26:29;97782.28;;;-2.19;77.21
45369;BME280;51342;55.250;37.668;2023-03-04T03:29:01;97754.41;;;-2.30;77.34
45369;BME280;51342;55.250;37.668;2023-03-04T03:31:33;97766.84;;;-2.22;77.59
45369;BME280;51342;55.250;37.668;2023-03-04T03:34:04;97748.66;;;-2.28;77.54
45369;BME280;51342;55.250;37.668;2023-03-04T03:36:36;97749.53;;;-2.27;77.56
45369;BME280;51342;55.250;37.668;2023-03-04T03:39:07;97764.78;;;-2.16;77.54
45369;BME280;51342;55.250;37.668;2023-03-04T03:41:39;97751.78;;;-2.20;77.43
45369;BME280;51342;55.250;37.668;2023-03-04T03:44:10;97761.50;;;-2.15;77.46
45369;BME280;51342;55.250;37.668;2023-03-04T03:46:42;97740.53;;;-2.24;77.54
45369;BME280;51342;55.250;37.668;2023-03-04T03:49:13;97747.03;;;-2.16;77.33
45369;BME280;51342;55.250;37.668;2023-03-04T03:51:47;97742.66;;;-2.18;77.25
45369;BME280;51342;55.250;37.668;2023-03-04T03:54:18;97731.06;;;-2.26;77.33
45369;BME280;51342;55.250;37.668;2023-03-04T03:56:50;97712.53;;;-2.37;77.04
45369;BME280;51342;55.250;37.668;2023-03-04T03:59:21;97734.34;;;-2.27;76.91
45369;BME280;51342;55.250;37.668;2023-03-04T04:01:54;97725.66;;;-2.31;76.91
45369;BME280;51342;55.250;37.668;2023-03-04T04:04:25;97717.59;;;-2.37;76.87
45369;BME280;51342;55.250;37.668;2023-03-04T04:06:57;97724.63;;;-2.33;76.88
45369;BME280;51342;55.250;37.668;2023-03-04T04:09:28;97727.31;;;-2.31;76.66
45369;BME280;51342;55.250;37.668;2023-03-04T04:12:00;97712.53;;;-2.37;76.67
45369;BME280;51342;55.250;37.668;2023-03-04T04:14:32;97716.06;;;-2.35;76.53
45369;BME280;51342;55.250;37.668;2023-03-04T04:17:04;97714.50;;;-2.33;76.62
45369;BME280;51342;55.250;37.668;2023-03-04T04:19:36;97704.38;;;-2.33;76.40
45369;BME280;51342;55.250;37.668;2023-03-04T04:22:15;97699.09;;;-2.36;76.39
45369;BME280;51342;55.250;37.668;2023-03-04T04:24:47;97700.44;;;-2.29;76.48
45369;BME280;51342;55.250;37.668;2023-03-04T04:27:19;97704.88;;;-2.27;76.35
45369;BME280;51342;55.250;37.668;2023-03-04T04:29:50;97694.75;;;-2.27;76.22
45369;BME280;51342;55.250;37.668;2023-03-04T04:32:22;97696.84;;;-2.21;76.33
45369;BME280;51342;55.250;37.668;2023-03-04T04:34:53;97679.97;;;-2.32;76.25
45369;BME280;51342;55.250;37.668;2023-03-04T04:37:25;97675.78;;;-2.32;76.33
45369;BME280;51342;55.250;37.668;2023-03-04T04:40:00;97700.47;;;-2.18;76.22
45369;BME280;51342;55.250;37.668;2023-03-04T04:42:31;97695.94;;;-2.22;76.01
45369;BME280;51342;55.250;37.668;2023-03-04T04:45:03;97684.38;;;-2.30;75.89
45369;BME280;51342;55.250;37.668;2023-03-04T04:47:38;97680.41;;;-2.38;75.87
45369;BME280;51342;55.250;37.668;2023-03-04T04:50:10;97679.69;;;-2.47;75.86
45369;BME280;51342;55.250;37.668;2023-03-04T04:52:41;97688.53;;;-2.42;75.78
45369;BME280;51342;55.250;37.668;2023-03-04T04:55:13;97667.13;;;-2.57;75.53
45369;BME280;51342;55.250;37.668;2023-03-04T04:57:44;97684.75;;;-2.47;75.73
45369;BME280;51342;55.250;37.668;2023-03-04T05:00:16;97680.22;;;-2.51;75.58
45369;BME280;51342;55.250;37.668;2023-03-04T05:02:49;97684.50;;;-2.50;75.66
45369;BME280;51342;55.250;37.668;2023-03-04T05:05:20;97689.56;;;-2.50;75.51
45369;BME280;51342;55.250;37.668;2023-03-04T05:07:52;97685.41;;;-2.50;75.54
45369;BME280;51342;55.250;37.668;2023-03-04T05:10:23;97681.00;;;-2.52;75.30
45369;BME280;51342;55.250;37.668;2023-03-04T05:12:55;97685.41;;;-2.50;75.24
45369;BME280;51342;55.250;37.668;2023-03-04T05:15:28;97676.03;;;-2.51;75.24
45369;BME280;51342;55.250;37.668;2023-03-04T05:18:00;97680.16;;;-2.41;75.47
45369;BME280;51342;55.250;37.668;2023-03-04T05:20:31;97676.41;;;-2.34;75.00
45369;BME280;51342;55.250;37.668;2023-03-04T05:23:03;97685.47;;;-2.26;75.13
45369;BME280;51342;55.250;37.668;2023-03-04T05:25:34;97677.31;;;-2.22;74.88
45369;BME280;51342;55.250;37.668;2023-03-04T05:28:06;97664.00;;;-2.31;74.75
45369;BME280;51342;55.250;37.668;2023-03-04T05:30:43;97676.44;;;-2.23;74.74
45369;BME280;51342;55.250;37.668;2023-03-04T05:33:16;97653.41;;;-2.37;74.75
45369;BME280;51342;55.250;37.668;2023-03-04T05:35:49;97673.91;;;-2.23;74.70
45369;BME280;51342;55.250;37.668;2023-03-04T05:38:21;97666.91;;;-2.15;74.58
45369;BME280;51342;55.250;37.668;2023-03-04T05:40:57;97653.09;;;-2.19;74.55
45369;BME280;51342;55.250;37.668;2023-03-04T05:43:30;97657.94;;;-2.10;74.12
45369;BME280;51342;55.250;37.668;2023-03-04T05:46:15;97657.31;;;-2.07;74.15
45369;BME280;51342;55.250;37.668;2023-03-04T05:49:08;97665.00;;;-1.94;74.17
45369;BME280;51342;55.250;37.668;2023-03-04T05:51:44;97654.00;;;-1.83;74.21
45369;BME280;51342;55.250;37.668;2023-03-04T05:54:26;97649.81;;;-1.82;73.79
45369;BME280;51342;55.250;37.668;2023-03-04T05:56:59;97629.97;;;-1.88;73.92
45369;BME280;51342;55.250;37.668;2023-03-04T05:59:37;97650.59;;;-1.83;73.68
45369;BME280;51342;55.250;37.668;2023-03-04T06:02:09;97629.09;;;-1.89;73.77
45369;BME280;51342;55.250;37.668;2023-03-04T06:04:41;97638.78;;;-1.71;73.99
45369;BME280;51342;55.250;37.668;2023-03-04T06:07:12;97626.66;;;-1.64;73.71
45369;BME280;51342;55.250;37.668;2023-03-04T06:09:44;97628.59;;;-1.48;73.58
45369;BME280;51342;55.250;37.668;2023-03-04T06:12:16;97643.78;;;-1.24;73.28
45369;BME280;51342;55.250;37.668;2023-03-04T06:14:47;97620.78;;;-1.14;73.06
45369;BME280;51342;55.250;37.668;2023-03-04T06:17:19;97638.91;;;-0.85;73.05
45369;BME280;51342;55.250;37.668;2023-03-04T06:19:50;97643.75;;;-0.63;72.92
45369;BME280;51342;55.250;37.668;2023-03-04T06:22:25;97635.66;;;-0.57;72.49
45369;BME280;51342;55.250;37.668;2023-03-04T06:25:16;97610.78;;;-0.49;72.28
45369;BME280;51342;55.250;37.668;2023-03-04T06:27:47;97612.41;;;-0.25;72.35
45369;BME280;51342;55.250;37.668;2023-03-04T06:30:19;97590.50;;;-0.23;71.80
45369;BME280;51342;55.250;37.668;2023-03-04T06:32:54;97591.81;;;-0.16;71.74
45369;BME280;51342;55.250;37.668;2023-03-04T06:35:28;97613.97;;;-0.01;71.67
45369;BME280;51342;55.250;37.668;2023-03-04T06:38:13;97582.81;;;-0.11;71.46
45369;BME280;51342;55.250;37.668;2023-03-04T06:40:45;97600.19;;;0.09;71.25
45369;BME280;51342;55.250;37.668;2023-03-04T06:43:44;97608.72;;;0.23;70.83
45369;BME280;51342;55.250;37.668;2023-03-04T06:46:27;97603.53;;;0.35;70.43
45369;BME280;51342;55.250;37.668;2023-03-04T06:52:55;97605.13;;;0.61;70.20
45369;BME280;51342;55.250;37.668;2023-03-04T06:55:42;97577.75;;;0.43;69.93
45369;BME280;51342;55.250;37.668;2023-03-04T06:58:14;97584.47;;;0.56;69.89
45369;BME280;51342;55.250;37.668;2023-03-04T07:04:57;97541.78;;;0.37;69.68
45369;BME280;51342;55.250;37.668;2023-03-04T07:12:19;97565.16;;;1.01;69.05
45369;BME280;51342;55.250;37.668;2023-03-04T07:14:51;97556.59;;;1.14;68.82
45369;BME280;51342;55.250;37.668;2023-03-04T07:17:22;97557.31;;;1.26;68.42
45369;BME280;51342;55.250;37.668;2023-03-04T07:19:54;97535.00;;;1.22;68.29
45369;BME280;51342;55.250;37.668;2023-03-04T07:22:25;97549.03;;;1.30;68.49
45369;BME280;51342;55.250;37.668;2023-03-04T07:24:57;97546.16;;;1.39;68.63
45369;BME280;51342;55.250;37.668;2023-03-04T07:27:28;97546.50;;;1.45;68.05
45369;BME280;51342;55.250;37.668;2023-03-04T07:29:59;97534.66;;;1.45;68.08
45369;BME280;51342;55.250;37.668;2023-03-04T07:32:30;97536.00;;;1.53;67.58
45369;BME280;51342;55.250;37.668;2023-03-04T07:35:04;97538.53;;;1.53;67.50
45369;BME280;51342;55.250;37.668;2023-03-04T07:37:36;97525.78;;;1.53;67.87
45369;BME280;51342;55.250;37.668;2023-03-04T07:40:08;97523.13;;;1.52;67.18
45369;BME280;51342;55.250;37.668;2023-03-04T07:42:40;97526.03;;;1.58;66.98
45369;BME280;51342;55.250;37.668;2023-03-04T07:45:15;97521.13;;;1.61;67.53
45369;BME280;51342;55.250;37.668;2023-03-04T07:47:46;97516.91;;;1.62;67.10
45369;BME280;51342;55.250;37.668;2023-03-04T07:50:18;97518.72;;;1.64;66.77
45369;BME280;51342;55.250;37.668;2023-03-04T07:52:50;97514.53;;;1.65;67.07
45369;BME280;51342;55.250;37.668;2023-03-04T07:55:22;97514.69;;;1.68;66.98
45369;BME280;51342;55.250;37.668;2023-03-04T07:57:53;97506.25;;;1.69;67.20
45369;BME280;51342;55.250;37.668;2023-03-04T08:00:25;97503.63;;;1.67;66.97
45369;BME280;51342;55.250;37.668;2023-03-04T08:02:56;97503.69;;;1.69;67.15
45369;BME280;51342;55.250;37.668;2023-03-04T08:05:27;97503.16;;;1.74;67.34
45369;BME280;51342;55.250;37.668;2023-03-04T08:07:59;97498.34;;;1.79;66.71
45369;BME280;51342;55.250;37.668;2023-03-04T08:10:30;97487.59;;;1.84;66.75
45369;BME280;51342;55.250;37.668;2023-03-04T08:13:01;97500.00;;;1.93;66.63
45369;BME280;51342;55.250;37.668;2023-03-04T08:15:33;97498.53;;;1.98;66.40
45369;BME280;51342;55.250;37.668;2023-03-04T08:18:05;97497.13;;;2.03;66.35
45369;BME280;51342;55.250;37.668;2023-03-04T08:20:40;97485.69;;;2.11;66.20
45369;BME280;51342;55.250;37.668;2023-03-04T08:23:13;97491.59;;;2.27;65.97
45369;BME280;51342;55.250;37.668;2023-03-04T08:25:45;97481.34;;;2.42;65.62
45369;BME280;51342;55.250;37.668;2023-03-04T08:28:17;97491.47;;;2.56;64.96
45369;BME280;51342;55.250;37.668;2023-03-04T08:30:52;97476.25;;;2.58;65.18
45369;BME280;51342;55.250;37.668;2023-03-04T08:33:24;97475.63;;;2.62;64.47
45369;BME280;51342;55.250;37.668;2023-03-04T08:35:55;97466.66;;;2.54;64.55
45369;BME280;51342;55.250;37.668;2023-03-04T08:38:26;97468.41;;;2.55;64.62
45369;BME280;51342;55.250;37.668;2023-03-04T08:40:58;97468.03;;;2.63;64.30
45369;BME280;51342;55.250;37.668;2023-03-04T08:43:30;97450.84;;;2.77;64.18
45369;BME280;51342;55.250;37.668;2023-03-04T08:46:01;97449.16;;;2.94;63.35
45369;BME280;51342;55.250;37.668;2023-03-04T08:48:33;97439.88;;;3.12;63.29
45369;BME280;51342;55.250;37.668;2023-03-04T08:51:09;97438.06;;;3.28;62.28
45369;BME280;51342;55.250;37.668;2023-03-04T08:53:41;97439.03;;;3.30;62.50
45369;BME280;51342;55.250;37.668;2023-03-04T08:56:13;97430.25;;;3.25;62.23
45369;BME280;51342;55.250;37.668;2023-03-04T08:58:45;97427.72;;;3.25;61.89
45369;BME280;51342;55.250;37.668;2023-03-04T09:01:16;97418.28;;;3.24;61.69
45369;BME280;51342;55.250;37.668;2023-03-04T09:03:48;97420.53;;;3.17;61.72
45369;BME280;51342;55.250;37.668;2023-03-04T09:06:19;97420.16;;;3.10;62.03
45369;BME280;51342;55.250;37.668;2023-03-04T09:08:51;97417.94;;;3.00;61.66
45369;BME280;51342;55.250;37.668;2023-03-04T09:11:22;97411.41;;;2.88;61.49
45369;BME280;51342;55.250;37.668;2023-03-04T09:13:53;97410.66;;;2.89;62.44
45369;BME280;51342;55.250;37.668;2023-03-04T09:16:25;97404.16;;;2.96;61.78
45369;BME280;51342;55.250;37.668;2023-03-04T09:18:56;97396.72;;;3.01;61.65
45369;BME280;51342;55.250;37.668;2023-03-04T09:21:28;97394.31;;;3.04;61.99
45369;BME280;51342;55.250;37.668;2023-03-04T09:23:59;97390.41;;;2.94;61.67
45369;BME280;51342;55.250;37.668;2023-03-04T09:26:31;97382.16;;;2.82;61.79
45369;BME280;51342;55.250;37.668;2023-03-04T09:29:03;97381.03;;;2.77;61.74
45369;BME280;51342;55.250;37.668;2023-03-04T09:31:34;97378.25;;;2.72;61.26
45369;BME280;51342;55.250;37.668;2023-03-04T09:34:06;97370.22;;;2.64;61.13
45369;BME280;51342;55.250;37.668;2023-03-04T09:36:37;97369.78;;;2.55;61.59
45369;BME280;51342;55.250;37.668;2023-03-04T09:39:08;97371.34;;;2.53;62.20
45369;BME280;51342;55.250;37.668;2023-03-04T09:41:42;97362.75;;;2.51;62.04
45369;BME280;51342;55.250;37.668;2023-03-04T09:44:23;97361.78;;;2.49;62.29
45369;BME280;51342;55.250;37.668;2023-03-04T09:47:05;97354.84;;;2.47;62.17
45369;BME280;51342;55.250;37.668;2023-03-04T09:49:40;97348.06;;;2.47;62.34
45369;BME280;51342;55.250;37.668;2023-03-04T09:55:27;97338.66;;;2.46;62.52
45369;BME280;51342;55.250;37.668;2023-03-04T10:00:44;97334.09;;;2.57;62.93
45369;BME280;51342;55.250;37.668;2023-03-04T10:03:23;97329.31;;;2.63;62.87
45369;BME280;51342;55.250;37.668;2023-03-04T10:06:03;97319.97;;;2.63;62.29
45369;BME280;51342;55.250;37.668;2023-03-04T10:08:49;97320.03;;;2.65;62.28
45369;BME280;51342;55.250;37.668;2023-03-04T10:11:24;97316.78;;;2.68;62.39
45369;BME280;51342;55.250;37.668;2023-03-04T10:16:57;97303.16;;;2.67;62.49
45369;BME280;51342;55.250;37.668;2023-03-04T10:19:53;97297.22;;;2.68;62.76
45369;BME280;51342;55.250;37.668;2023-03-04T10:28:03;97284.88;;;2.59;63.82
45369;BME280;51342;55.250;37.668;2023-03-04T10:33:34;97273.22;;;2.64;63.81
45369;BME280;51342;55.250;37.668;2023-03-04T10:39:01;97264.72;;;2.48;64.37
45369;BME280;51342;55.250;37.668;2023-03-04T10:41:33;97258.69;;;2.46;64.67
45369;BME280;51342;55.250;37.668;2023-03-04T10:46:43;97250.19;;;2.29;64.81
45369;BME280;51342;55.250;37.668;2023-03-04T10:49:17;97261.84;;;2.24;65.08
45369;BME280;51342;55.250;37.668;2023-03-04T10:52:12;97263.28;;;2.19;65.27
45369;BME280;51342;55.250;37.668;2023-03-04T10:54:54;97250.88;;;2.08;65.47
45369;BME280;51342;55.250;37.668;2023-03-04T10:57:37;97239.47;;;2.02;65.78
45369;BME280;51342;55.250;37.668;2023-03-04T11:02:48;97229.22;;;2.00;66.38
45369;BME280;51342;55.250;37.668;2023-03-04T11:05:22;97223.06;;;1.97;66.70
45369;BME280;51342;55.250;37.668;2023-03-04T11:07:57;97222.19;;;1.96;66.86
45369;BME280;51342;55.250;37.668;2023-03-04T11:21:19;97207.66;;;1.77;67.58
45369;BME280;51342;55.250;37.668;2023-03-04T11:24:00;97198.97;;;1.74;67.66
45369;BME280;51342;55.250;37.668;2023-03-04T11:26:44;97192.75;;;1.69;68.01
45369;BME280;51342;55.250;37.668;2023-03-04T11:29:41;97187.50;;;1.66;68.35
45369;BME280;51342;55.250;37.668;2023-03-04T11:32:17;97184.00;;;1.64;68.58
45369;BME280;51342;55.250;37.668;2023-03-04T11:37:46;97179.00;;;1.32;68.76
45369;BME280;51342;55.250;37.668;2023-03-04T11:40:46;97176.59;;;1.36;68.97
45369;BME280;51342;55.250;37.668;2023-03-04T11:43:34;97175.91;;;1.38;69.29
45369;BME280;51342;55.250;37.668;2023-03-04T11:55:28;97147.69;;;1.35;69.66
45369;BME280;51342;55.250;37.668;2023-03-04T12:15:27;97110.63;;;1.24;70.44
45369;BME280;51342;55.250;37.668;2023-03-04T12:32:26;97076.47;;;1.37;71.10
45369;BME280;51342;55.250;37.668;2023-03-04T12:41:16;97067.34;;;1.58;70.98
45369;BME280;51342;55.250;37.668;2023-03-04T12:44:00;97062.91;;;1.54;71.24
45369;BME280;51342;55.250;37.668;2023-03-04T12:46:41;97063.91;;;1.57;71.06
45369;BME280;51342;55.250;37.668;2023-03-04T12:55:01;97048.34;;;1.51;71.45
45369;BME280;51342;55.250;37.668;2023-03-04T12:57:34;97046.59;;;1.50;71.16
45369;BME280;51342;55.250;37.668;2023-03-04T13:00:46;97038.34;;;1.38;71.37
45369;BME280;51342;55.250;37.668;2023-03-04T13:04:02;97035.56;;;1.33;71.48
45369;BME280;51342;55.250;37.668;2023-03-04T13:12:16;97021.16;;;1.34;71.59
45369;BME280;51342;55.250;37.668;2023-03-04T13:17:48;97025.13;;;1.29;71.82
45369;BME280;51342;55.250;37.668;2023-03-04T13:25:47;97014.50;;;1.20;71.99
45369;BME280;51342;55.250;37.668;2023-03-04T13:31:10;97007.34;;;1.13;72.07
45369;BME280;51342;55.250;37.668;2023-03-04T13:36:55;96991.16;;;0.94;72.54
45369;BME280;51342;55.250;37.668;2023-03-04T13:39:28;96984.53;;;0.98;72.72
45369;BME280;51342;55.250;37.668;2023-03-04T13:42:00;96973.50;;;0.97;72.81
45369;BME280;51342;55.250;37.668;2023-03-04T13:47:18;96976.66;;;0.93;73.00
45369;BME280;51342;55.250;37.668;2023-03-04T13:50:29;96972.88;;;0.85;73.10
45369;BME280;51342;55.250;37.668;2023-03-04T13:53:29;96965.88;;;0.81;73.32
45369;BME280;51342;55.250;37.668;2023-03-04T13:56:26;96971.03;;;0.83;73.55
45369;BME280;51342;55.250;37.668;2023-03-04T14:04:19;96952.41;;;0.84;73.58
45369;BME280;51342;55.250;37.668;2023-03-04T14:06:52;96945.59;;;0.83;73.82
45369;BME280;51342;55.250;37.668;2023-03-04T14:09:27;96944.53;;;0.79;73.82
45369;BME280;51342;55.250;37.668;2023-03-04T14:12:03;96943.47;;;0.74;74.05
45369;BME280;51342;55.250;37.668;2023-03-04T14:17:21;96942.66;;;0.75;74.19
45369;BME280;51342;55.250;37.668;2023-03-04T14:19:54;96934.94;;;0.73;74.18
45369;BME280;51342;55.250;37.668;2023-03-04T14:22:28;96929.84;;;0.73;74.42
45369;BME280;51342;55.250;37.668;2023-03-04T14:25:21;96937.16;;;0.67;74.32
45369;BME280;51342;55.250;37.668;2023-03-04T14:30:41;96920.91;;;0.64;74.40
45369;BME280;51342;55.250;37.668;2023-03-04T14:33:42;96900.56;;;0.47;74.78
45369;BME280;51342;55.250;37.668;2023-03-04T14:36:21;96910.09;;;0.51;74.86
45369;BME280;51342;55.250;37.668;2023-03-04T14:38:56;96907.56;;;0.51;74.74
45369;BME280;51342;55.250;37.668;2023-03-04T14:44:41;96900.78;;;0.52;75.09
45369;BME280;51342;55.250;37.668;2023-03-04T14:47:19;96897.16;;;0.47;75.16
45369;BME280;51342;55.250;37.668;2023-03-04T14:49:53;96897.16;;;0.47;75.26
45369;BME280;51342;55.250;37.668;2023-03-04T14:55:21;96896.72;;;0.39;75.34
45369;BME280;51342;55.250;37.668;2023-03-04T14:58:08;96900.19;;;0.40;75.37
45369;BME280;51342;55.250;37.668;2023-03-04T15:00:40;96895.09;;;0.40;75.53
45369;BME280;51342;55.250;37.668;2023-03-04T15:03:30;96893.97;;;0.35;75.52
45369;BME280;51342;55.250;37.668;2023-03-04T15:06:16;96888.78;;;0.33;75.50
45369;BME280;51342;55.250;37.668;2023-03-04T15:09:00;96884.38;;;0.29;75.79
45369;BME280;51342;55.250;37.668;2023-03-04T15:11:48;96893.75;;;0.30;75.65
45369;BME280;51342;55.250;37.668;2023-03-04T15:14:49;96881.66;;;0.26;75.76
45369;BME280;51342;55.250;37.668;2023-03-04T15:20:21;96879.66;;;0.20;75.62
45369;BME280;51342;55.250;37.668;2023-03-04T15:25:25;96886.75;;;0.26;75.95
45369;BME280;51342;55.250;37.668;2023-03-04T15:27:57;96881.66;;;0.26;75.81
45369;BME280;51342;55.250;37.668;2023-03-04T15:30:33;96878.06;;;0.22;75.67
45369;BME280;51342;55.250;37.668;2023-03-04T15:33:05;96876.44;;;0.23;75.92
45369;BME280;51342;55.250;37.668;2023-03-04T15:35:40;96865.16;;;0.18;75.85
45369;BME280;51342;55.250;37.668;2023-03-04T15:38:15;96880.47;;;0.19;76.23
45369;BME280;51342;55.250;37.668;2023-03-04T15:40:47;96876.06;;;0.17;76.33
45369;BME280;51342;55.250;37.668;2023-03-04T15:43:20;96875.22;;;0.16;76.38
45369;BME280;51342;55.250;37.668;2023-03-04T15:45:52;96856.84;;;0.06;76.48
45369;BME280;51342;55.250;37.668;2023-03-04T15:48:23;96869.91;;;0.12;76.54
45369;BME280;51342;55.250;37.668;2023-03-04T15:50:57;96869.91;;;0.12;76.61
45369;BME280;51342;55.250;37.668;2023-03-04T15:56:16;96878.41;;;0.12;76.82
45369;BME280;51342;55.250;37.668;2023-03-04T15:59:03;96864.66;;;0.09;76.95
45369;BME280;51342;55.250;37.668;2023-03-04T16:01:36;96870.47;;;-0.10;77.15
45369;BME280;51342;55.250;37.668;2023-03-04T16:04:12;96861.41;;;-0.05;77.08
45369;BME280;51342;55.250;37.668;2023-03-04T16:06:46;96867.75;;;0.03;77.22
45369;BME280;51342;55.250;37.668;2023-03-04T16:09:18;96863.63;;;0.05;77.15